Mount Vernon, WA

6:48 PM PDT on September 23, 2014 (GMT -0700)
Whidbey Island Naval Air Station | Change Station
CLOSE
Current Station
Airport
Location: Whidbey Island,
Elevation: 46 ft
Nearby Weather Stations

Elev 46 ft 48.35 °N, 122.66 °W | Updated 52 minutes ago

Overcast
Overcast
68 °F
Feels Like 68 °F
N
20
Wind Variable Wind from SE
Gusts 33 mph

Today
High -- | Low -- °F
--% Chance of Precip.
Yesterday
High -- | Low -- °F
Precip. -- in
6:57 AM 7:04 PM
Waning Crescent, 0% visible
Pressure 29.76 in
Visibility 10.0 miles
Clouds Scattered Clouds 3500 ft
Scattered Clouds 6500 ft
Overcast 10000 ft
Dew Point 56 °F
Humidity 65%
Rainfall 0.05 in
Snow Depth 0 in , 0 in , 1 in
UV 0 out of 12
Pollen .40 out of 12
PM2.5 Good
Flu Activity Not available.
METAR KNUW 240056Z 14017G29KT 10SM SCT035 SCT065 OVC100 20/13 A2974 RMK AO2 PK WND 13032/0022 SLP076 T02000133

More Conditions Fewer Conditions

Pressure 29.76 in
Visibility 10.0 miles
Clouds Scattered Clouds 3500 ft
Scattered Clouds 6500 ft
Overcast 10000 ft
Dew Point 56 °F
Humidity 65%
Rainfall 0.05 in
Snow Depth 0 in , 0 in , 1 in
UV 0 out of 12
Pollen .40 out of 12
PM2.5 Good
Flu Activity Not available.
METAR KNUW 240056Z 14017G29KT 10SM SCT035 SCT065 OVC100 20/13 A2974 RMK AO2 PK WND 13032/0022 SLP076 T02000133

More Conditions Fewer Conditions

10-Day Weather Forecast

Almanac

Astronomy

Sep. 23, 2014 Rise Set
Actual Time 6:57 AM PDT 7:04 PM PDT
Civil Twilight 6:26 AM PDT 7:35 PM PDT
Nautical Twilight 5:49 AM PDT 8:12 PM PDT
Astronomical Twilight 5:11 AM PDT 8:50 PM PDT
Moon 6:26 AM PDT (9/23) 6:44 PM PDT (9/23)
Length of Visible Light 13h 09m
Length of Day
12h 07m
Tomorrow will be 3m 30s shorter.
Waning Crescent, 0% of the Moon is Illuminated
Today
Waning Crescent
Sep 24
New
Oct 1
First Quarter
Oct 8
Full
Oct 15
Last Quarter

Today's Extremes

State Highs State Lows

Community

WunderPhotos

Upload Photos

1,755,844 photos uploaded!

Nearby

Air Quality

  Air Quality AQ Index Pollutant
Yesterday Good
OZONE
Yesterday Good
PM2.5
Current Good
PM2.5
Tuesday Good
OZONE
Tuesday Good
PM2.5
Wednesday Good
OZONE
Wednesday Good
PM2.5
Thursday Good
OZONE
Thursday Good
PM2.5

Snow Depth

Station Depth Elevation
Spencer Meadow 0 in 3400 ft
Sourdough Gulch 0 in 4000 ft
Pope Ridge 1 in 3540 ft
Wells Creek 0 in 4200 ft
Harts Pass 1 in 6500 ft

Earthquake Activity

City Distance Mag. Time & Date
No recent earthquake activity has been reported nearby.
Minimum magnitude displayed is 2.5.

Coastal Water Temperatures

Place Temperature
Port Townsend, WA 53.1 °F
Friday Harbor, WA 52.0 °F
Port Angeles, WA 52.0 °F

Nearby Weather Stations